Flight Track Log - Related Links

Times and Time Zones

All times are in EDT time to prevent confusion due to time zone crossing. See the CCA1226 flight status page for this flight to view local times or setup timezone preferences in your user account.

Time Position Orientation Groundspeed Altitude Reporting Facility
EDT Latitude Longitude Course Direction KTS MPH feet Rate Location/Type
Thu 09:17:00 AM 25.6814 110.2126 19° North  Level Estimated
Thu 09:18:00 AM 25.7741 110.2475 19° North  Level Estimated
Thu 09:19:00 AM 25.8667 110.2823 19° North  Level Estimated
Thu 09:20:00 AM 25.9593 110.3173 19° North  Level Estimated
Thu 09:21:00 AM 26.0519 110.3523 19° North  Level Estimated
Thu 09:22:00 AM 26.1445 110.3874 19° North  Level Estimated
Thu 09:23:00 AM 26.2371 110.4225 19° North  Level Estimated
Thu 09:24:00 AM 26.3297 110.4577 19° North  Level Estimated
Thu 09:25:00 AM 26.4223 110.4929 19° North  Level Estimated
Thu 09:26:00 AM 26.5149 110.5282 19° North  Level Estimated
Thu 09:27:00 AM 26.6074 110.5635 19° North  Level Estimated
Thu 09:28:00 AM 26.7000 110.5989 19° North  Level Estimated
Thu 09:29:00 AM 26.7925 110.6344 19° North  Level Estimated
Thu 09:30:00 AM 26.8851 110.6699 19° North  Level Estimated
Thu 09:31:00 AM 26.9776 110.7055 19° North  Level Estimated
Thu 09:32:00 AM 27.0701 110.7411 19° North  Level Estimated
Thu 09:33:00 AM 27.1626 110.7768 19° North  Level Estimated
Thu 09:34:00 AM 27.2551 110.8126 19° North  Level Estimated
Thu 09:35:00 AM 27.3476 110.8484 19° North  Level Estimated
Thu 09:36:00 AM 27.4401 110.8843 19° North  Level Estimated
Thu 09:37:00 AM 27.5326 110.9202 19° North  Level Estimated
Thu 09:38:00 AM 27.6250 110.9562 19° North  Level Estimated
Thu 09:39:00 AM 27.7175 110.9922 19° North  Level Estimated
Thu 09:40:00 AM 27.8099 111.0284 19° North  Level Estimated
Thu 09:41:00 AM 27.9023 111.0645 19° North  Level Estimated
Thu 09:42:00 AM 27.9948 111.1008 19° North  Level Estimated
Thu 09:43:00 AM 28.0872 111.1371 19° North  Level Estimated
Thu 09:44:00 AM 28.1796 111.1734 19° North  Level Estimated
Thu 09:45:00 AM 28.2720 111.2099 19° North  Level Estimated
Thu 09:46:00 AM 28.3644 111.2464 19° North  Level Estimated
Thu 09:47:00 AM 28.4568 111.2829 19° North  Level Estimated
Thu 09:48:00 AM 28.5492 111.3195 19° North  Level Estimated
Thu 09:49:00 AM 28.6415 111.3562 19° North  Level Estimated
Thu 09:50:00 AM 28.7339 111.3930 19° North  Level Estimated
Thu 09:51:00 AM 28.8262 111.4298 19° North  Level Estimated
Thu 09:52:00 AM 28.9185 111.4666 19° North  Level Estimated
Thu 09:53:00 AM 29.0109 111.5036 19° North  Level Estimated
Thu 09:54:00 AM 29.1032 111.5406 19° North  Level Estimated
Thu 09:55:00 AM 29.1955 111.5777 19° North  Level Estimated
Thu 09:56:00 AM 29.2878 111.6148 19° North  Level Estimated
Thu 09:57:00 AM 29.3800 111.6520 19° North  Level Estimated
Thu 09:58:00 AM 29.4723 111.6893 19° North  Level Estimated
Thu 09:59:00 AM 29.5646 111.7266 19° North  Level Estimated
Thu 10:00:00 AM 29.6568 111.7640 19° North  Level Estimated
Thu 10:01:00 AM 29.7491 111.8015 19° North  Level Estimated
Thu 10:02:00 AM 29.8413 111.8391 19° North  Level Estimated
Thu 10:03:00 AM 29.9335 111.8767 19° North  Level Estimated
Thu 10:04:00 AM 30.0257 111.9144 19° North  Level Estimated
Thu 10:05:00 AM 30.1179 111.9521 20° North  Level Estimated
Thu 10:06:00 AM 30.2101 111.9900 20° North  Level Estimated
Thu 10:07:00 AM 30.3022 112.0279 20° North  Level Estimated
Thu 10:08:00 AM 30.3944 112.0658 20° North  Level Estimated
Thu 10:09:00 AM 30.4865 112.1039 20° North  Level Estimated
Thu 10:10:00 AM 30.5787 112.1420 20° North  Level Estimated
Thu 10:11:00 AM 30.6708 112.1802 20° North  Level Estimated
Thu 10:12:00 AM 30.7629 112.2185 20° North  Level Estimated
Thu 10:13:00 AM 30.8550 112.2568 20° North  Level Estimated
Thu 10:14:00 AM 30.9471 112.2952 20° North  Level Estimated
Thu 10:15:00 AM 31.0392 112.3337 20° North  Level Estimated
Thu 10:16:00 AM 31.1313 112.3722 20° North  Level Estimated
Thu 10:17:00 AM 31.2233 112.4109 20° North  Level Estimated
Thu 10:18:00 AM 31.3154 112.4496 20° North  Level Estimated
Thu 10:19:00 AM 31.4074 112.4883 20° North  Level Estimated
Thu 10:20:00 AM 31.4994 112.5272 20° North  Level Estimated
Thu 10:21:00 AM 31.5914 112.5661 20° North  Level Estimated
Thu 10:22:00 AM 31.6834 112.6052 20° North  Level Estimated
Thu 10:23:00 AM 31.7754 112.6442 20° North  Level Estimated
Thu 10:24:00 AM 31.8674 112.6834 20° North  Level Estimated
Thu 10:25:00 AM 31.9594 112.7227 20° North  Level Estimated
Thu 10:26:00 AM 32.0513 112.7620 20° North  Level Estimated
Thu 10:27:00 AM 32.1433 112.8014 20° North  Level Estimated
Thu 10:28:00 AM 32.2352 112.8409 20° North  Level Estimated
Thu 10:29:00 AM 32.3271 112.8804 20° North  Level Estimated
Thu 10:30:00 AM 32.4190 112.9201 20° North  Level Estimated
Thu 10:31:00 AM 32.5109 112.9598 20° North  Level Estimated
Thu 10:32:00 AM 32.6028 112.9996 20° North  Level Estimated
Thu 10:33:00 AM 32.6946 113.0395 20° North  Level Estimated
Thu 10:34:00 AM 32.7865 113.0795 20° North  Level Estimated
Thu 10:35:00 AM 32.8783 113.1195 20° North  Level Estimated
Thu 10:36:00 AM 32.9702 113.1597 20° North  Level Estimated
Thu 10:37:00 AM 33.0620 113.1999 20° North  Level Estimated
Thu 10:38:00 AM 33.1538 113.2402 20° North  Level Estimated
Thu 10:39:00 AM 33.2456 113.2806 20° North  Level Estimated
Thu 10:40:00 AM 33.3373 113.3210 20° North  Level Estimated
Thu 10:41:00 AM 33.4291 113.3616 20° North  Level Estimated
Thu 10:42:00 AM 33.5209 113.4022 20° North  Level Estimated
Thu 10:43:00 AM 33.6126 113.4430 20° North  Level Estimated
Thu 10:44:00 AM 33.7043 113.4838 20° North  Level Estimated
Thu 10:45:00 AM 33.7960 113.5247 20° North  Level Estimated
Thu 10:46:00 AM 33.8877 113.5657 20° North  Level Estimated
Thu 10:47:00 AM 33.9794 113.6068 20° North  Level Estimated
Thu 10:48:00 AM 34.0711 113.6479 20° North  Level Estimated
Thu 10:49:00 AM 34.1627 113.6892 20° North  Level Estimated
Thu 10:50:00 AM 34.2544 113.7305 20° North  Level Estimated
Thu 10:51:00 AM 34.3460 113.7720 20° North  Level Estimated
Thu 10:52:00 AM 34.4376 113.8135 20° North  Level Estimated
Thu 10:53:00 AM 34.5292 113.8551 21° North  Level Estimated
Thu 10:54:00 AM 34.6208 113.8968 21° North  Level Estimated
Thu 10:55:00 AM 34.7124 113.9386 21° North  Level Estimated
Thu 10:56:00 AM 34.8039 113.9805 21° North  Level Estimated
Thu 10:57:00 AM 34.8955 114.0225 21° North  Level Estimated
Thu 10:58:00 AM 34.9870 114.0646 21° North  Level Estimated
Thu 10:59:00 AM 35.0785 114.1068 21° North  Level Estimated
Thu 11:00:00 AM 35.1700 114.1491 21° North  Level Estimated
Thu 11:01:00 AM 35.2615 114.1914 21° North  Level Estimated
Thu 11:02:00 AM 35.3530 114.2339 21° North  Level Estimated
Thu 11:03:00 AM 35.4444 114.2765 21° North  Level Estimated
Thu 11:04:00 AM 35.5358 114.3191 21° North  Level Estimated
Thu 11:05:00 AM 35.6273 114.3619 21° North  Level Estimated
Thu 11:06:00 AM 35.7187 114.4047 21° North  Level Estimated
Thu 11:07:00 AM 35.8101 114.4477 21° North  Level Estimated
Thu 11:08:00 AM 35.9014 114.4907 21° North  Level Estimated
Thu 11:09:00 AM 35.9928 114.5339 21° North  Level Estimated
Thu 11:10:00 AM 36.0841 114.5771 21° North  Level Estimated
Thu 11:11:00 AM 36.1755 114.6205 21° North  Level Estimated
Thu 11:12:00 AM 36.2668 114.6639 21° North  Level Estimated
Thu 11:13:00 AM 36.3581 114.7075 21° North  Level Estimated
Thu 11:14:00 AM 36.4494 114.7511 21° North  Level Estimated
Thu 11:15:00 AM 36.5406 114.7949 21° North  Level Estimated
Thu 11:16:00 AM 36.6319 114.8387 21° North  Level Estimated
Thu 11:17:00 AM 36.7231 114.8827 21° North  Level Estimated
Thu 11:18:00 AM 36.8144 114.9268 21° North  Level Estimated
Thu 11:19:00 AM 36.9056 114.9709 21° North  Level Estimated
Thu 11:20:00 AM 36.9967 115.0152 21° North  Level Estimated
Thu 11:21:00 AM 37.0879 115.0596 21° North  Level Estimated
Thu 11:22:00 AM 37.1791 115.1041 21° North  Level Estimated
Thu 11:23:00 AM 37.2702 115.1487 21° North  Level Estimated
Thu 11:23:01 AM 39.1590 116.4240 21° North 367 422 14,100  Level FlightAware ADS-B
Thu 11:23:36 AM 39.2150 116.4510 20° North 356 410 13,200 -1,569 Descending FlightAware ADS-B
Thu 11:24:06 AM 39.2590 116.4710 19° North 349 402 12,400 -845 Descending FlightAware ADS-B
Thu 11:24:47 AM 39.3100 116.4940 19° North 349 402 12,200 -156 Descending FlightAware ADS-B
Thu 11:25:23 AM 39.3570 116.5150 19° North 349 402 12,200  Level FlightAware ADS-B
Thu 11:25:59 AM 39.4030 116.5350 19° North 349 402 12,200 -1,279 Level FlightAware ADS-B
Thu 11:28:00 AM 39.5999 116.5493 North  Level Estimated
Thu 11:29:00 AM 39.6976 116.5564 North  Level Estimated
Thu 11:30:00 AM 39.7953 116.5636 North  Level Estimated
Thu 11:31:00 AM 39.8929 116.5708 North  Level Estimated
Thu 11:32:00 AM 39.9906 116.5779 North  Level Estimated
Thu 11:32:11 AM 39.8340 116.6350 North 219 252 3,500  Level FlightAware ADS-B
Thu 11:32:31 AM 39.8540 116.6320 353° North 216 249 3,400 -267 Descending FlightAware ADS-B
Thu 11:32:56 AM 39.8770 116.6280 352° North 199 229 3,300 -400 Descending FlightAware ADS-B
Thu 11:33:16 AM 39.8960 116.6250 353° North 187 215 3,100 -686 Descending FlightAware ADS-B
Thu 11:33:31 AM 39.9080 116.6230 353° North 183 211 2,900 -900 Descending FlightAware ADS-B
Thu 11:33:56 AM 39.9250 116.6200 352° North 182 209 2,500 -900 Descending FlightAware ADS-B
Thu 11:34:11 AM 39.9390 116.6180 354° North 178 205 2,300 -340 Descending FlightAware ADS-B
Thu 11:34:49 AM 39.9630 116.6140 353° North 171 197 2,200 -831 Descending FlightAware ADS-B
Thu 11:35:16 AM 39.9880 116.6110 355° North 146 168 1,400 -800 Descending FlightAware ADS-B
Thu 11:35:49 AM 40.0050 116.6080 352° North 146 168 1,400  Level FlightAware ADS-B
Thu 11:38:00 AM 40.0801 116.5846 347° North  Level Estimated
Thu 11:39:00 AM 40.0801 116.5846 288° West  Level Estimated
Thu 11:40:00 AM 40.0801 116.5846 288° West  Level Estimated
Thu 11:41:00 AM 40.0801 116.5846 288° West  Level Estimated
Thu 11:42:00 AM 40.0801 116.5846 288° West  Level Estimated
Thu 11:43:00 AM 40.0801 116.5846 288° West  Level Estimated
Thu 11:44:00 AM 40.0801 116.5846 288° West  Level Estimated
Thu 11:45:00 AM 40.0801 116.5846 288° West  Level Estimated
Thu 11:46:00 AM 40.0801 116.5846 288° West  Level Estimated
Thu 11:47:00 AM 40.0801 116.5846 288° West  Level Estimated
Thu 11:48:00 AM 40.0801 116.5846 288° West  Level Estimated
Thu 11:49:00 AM 40.0801 116.5846 288° West  Level Estimated
Thu 11:50:00 AM 40.0801 116.5846 288° West  Level Estimated
Thu 11:51:00 AM 40.0801 116.5846 288° West  Level Estimated
Thu 11:52:00 AM 40.0801 116.5846 288° West  Level Estimated
Thu 11:53:00 AM 40.0801 116.5846 288° West  Level Estimated
Thu 11:54:00 AM 40.0801 116.5846 288° West  Level Estimated
Thu 11:55:00 AM 40.0801 116.5846 288° West  Level Estimated
Thu 11:56:00 AM 40.0801 116.5846 288° West  Level Estimated
Thu 11:57:00 AM 40.0801 116.5846 288° West  Level Estimated
Thu 11:58:00 AM 40.0801 116.5846 288° West  Level Estimated
Thu 11:59:00 AM 40.0801 116.5846 288° West  Level Estimated
Thu 12:00:00 PM 40.0801 116.5846 288° West  Level Estimated
Thu 12:01:00 PM 40.0801 116.5846 288° West  Level Estimated
Thu 12:02:00 PM 40.0801 116.5846 288° West  Level Estimated
Thu 12:03:00 PM 40.0801 116.5846 288° West  Level Estimated
Thu 12:04:00 PM 40.0801 116.5846 288° West  Level Estimated
Thu 12:05:00 PM 40.0801 116.5846 288° West  Level Estimated
Thu 12:06:00 PM 40.0801 116.5846 288° West  Level Estimated
Thu 12:07:00 PM 40.0801 116.5846 288° West  Level Estimated
Thu 12:08:00 PM 40.0801 116.5846 288° West  Level Estimated
Thu 12:09:00 PM 40.0801 116.5846 288° West  Level Estimated
Thu 12:10:00 PM 40.0801 116.5846 288° West  Level Estimated

Login

Don't have an account? Register now (free) for customized features, flight alerts, and more!